Stone Mountain, Georgia
Current Conditions -  °F | °C
As of 9:53 PM on Monday 26 Jan 2015 (Local Time) from KPDK Reporting Station
Scattered Clouds Scattered Clouds  
Wind Chill: 27°   Ceiling: Unl
Heat Index: 34°   Visibility: 10mi
Dew Point: 26°   Wind: 8mph
Humidity: 73%   Direction: 310°NW
Pressure: 29.91"   Gusts: NA
Location:  33.8°N, 84.17°W
Report Text: KPDK 270253Z 31007KT 10SM FEW100 SCT120 01/M03 A2991 RMK AO2 SLP141 T00111033 58002
Loading
Personal Weather Stations






























Interactive Weather Map New forecast layout! Learn more

10-Day Weather Forecast

Advertisements
Track Severe Weather on mobile